Time,TemperatureF,DewpointF,PressureIn,WindDirection,WindDirectionDegrees,WindSpeedMPH,WindSpeedGustMPH,Humidity,HourlyPrecipIn,Conditions,Clouds,dailyrainin,SoftwareType,DateUTC
2013-01-25 00:00:00,5.5,-10.8,30.05,West,268,8.1,8.7,46,0.00,,---,0.00,VWS V14.01,2013-01-25 05:00:00,
2013-01-25 00:01:00,5.5,-10.8,30.05,West,263,6.3,8.3,46,0.00,,---,0.00,VWS V14.01,2013-01-25 05:01:00,
2013-01-25 00:02:00,5.5,-10.8,30.05,WSW,251,8.1,8.1,46,0.00,,---,0.00,VWS V14.01,2013-01-25 05:02:00,
2013-01-25 00:07:00,5.5,-10.8,30.05,West,259,8.3,8.7,46,0.00,,---,0.00,VWS V14.01,2013-01-25 05:07:00,
2013-01-25 00:12:00,5.5,-10.8,30.05,West,259,8.1,8.1,46,0.00,,---,0.00,VWS V14.01,2013-01-25 05:12:00,
2013-01-25 00:17:00,5.5,-10.8,30.05,WSW,257,8.1,8.1,46,0.00,,---,0.00,VWS V14.01,2013-01-25 05:17:00,
2013-01-25 00:22:00,5.7,-10.6,30.05,West,261,8.3,8.3,46,0.00,,---,0.00,VWS V14.01,2013-01-25 05:22:00,
2013-01-25 00:27:00,5.9,-10.4,30.05,WSW,254,10.1,10.1,46,0.00,,---,0.00,VWS V14.01,2013-01-25 05:27:00,
2013-01-25 00:32:00,6.1,-10.2,30.05,WSW,254,6.3,8.1,46,0.00,,---,0.00,VWS V14.01,2013-01-25 05:32:00,
2013-01-25 00:37:00,6.1,-10.2,30.05,West,259,8.1,8.7,46,0.00,,---,0.00,VWS V14.01,2013-01-25 05:37:00,
2013-01-25 00:42:00,6.3,-10.1,30.05,WSW,254,8.7,8.7,46,0.00,,---,0.00,VWS V14.01,2013-01-25 05:42:00,
2013-01-25 00:47:00,6.3,-10.1,30.05,WSW,257,8.7,8.7,46,0.00,,---,0.00,VWS V14.01,2013-01-25 05:47:00,
2013-01-25 00:52:00,6.3,-10.1,30.05,WSW,255,8.1,8.1,46,0.00,,---,0.00,VWS V14.01,2013-01-25 05:52:00,
2013-01-25 00:57:00,6.3,-10.1,30.05,WSW,257,6.3,8.3,46,0.00,,---,0.00,VWS V14.01,2013-01-25 05:57:00,
2013-01-25 01:02:00,6.4,-9.9,30.05,West,266,8.1,8.7,46,0.00,,---,0.00,VWS V14.01,2013-01-25 06:02:00,
2013-01-25 01:07:00,6.4,-9.9,30.05,West,263,7.6,8.3,46,0.00,,---,0.00,VWS V14.01,2013-01-25 06:07:00,
2013-01-25 01:12:00,6.4,-9.9,30.05,WSW,254,7.6,8.3,46,0.00,,---,0.00,VWS V14.01,2013-01-25 06:12:00,
2013-01-25 01:17:00,6.4,-9.9,30.05,WSW,248,8.1,8.1,46,0.00,,---,0.00,VWS V14.01,2013-01-25 06:17:00,
2013-01-25 01:22:00,6.6,-9.8,30.05,WSW,250,6.7,7.6,46,0.00,,---,0.00,VWS V14.01,2013-01-25 06:22:00,
2013-01-25 01:27:00,6.8,-9.6,30.05,WSW,244,8.7,9.6,46,0.00,,---,0.00,VWS V14.01,2013-01-25 06:27:00,
2013-01-25 01:32:00,7.0,-9.4,30.05,West,263,6.3,8.1,46,0.00,,---,0.00,VWS V14.01,2013-01-25 06:32:00,
2013-01-25 01:37:00,6.8,-9.6,30.05,West,263,7.6,8.3,46,0.00,,---,0.00,VWS V14.01,2013-01-25 06:37:00,
2013-01-25 01:42:00,7.0,-9.4,30.05,WSW,248,8.3,8.3,46,0.00,,---,0.00,VWS V14.01,2013-01-25 06:42:00,
2013-01-25 01:47:00,7.0,-9.4,30.05,WSW,257,8.3,8.3,46,0.00,,---,0.00,VWS V14.01,2013-01-25 06:47:00,
2013-01-25 01:52:00,7.0,-9.4,30.05,WSW,254,8.3,8.3,46,0.00,,---,0.00,VWS V14.01,2013-01-25 06:52:00,
2013-01-25 01:57:00,7.0,-9.4,30.05,WSW,253,9.2,9.2,46,0.00,,---,0.00,VWS V14.01,2013-01-25 06:57:00,
2013-01-25 02:02:00,7.2,-9.3,30.05,WSW,245,7.6,8.3,46,0.00,,---,0.00,VWS V14.01,2013-01-25 07:02:00,
2013-01-25 02:07:00,7.2,-9.3,30.05,WSW,250,8.1,11.0,46,0.00,,---,0.00,VWS V14.01,2013-01-25 07:07:00,
2013-01-25 02:12:00,7.2,-9.3,30.05,WSW,258,8.7,8.7,46,0.00,,---,0.00,VWS V14.01,2013-01-25 07:12:00,
2013-01-25 02:17:00,7.2,-9.3,30.05,West,260,10.1,10.5,46,0.00,,---,0.00,VWS V14.01,2013-01-25 07:17:00,
2013-01-25 02:22:00,7.2,-9.3,30.05,West,265,8.3,10.1,46,0.00,,---,0.00,VWS V14.01,2013-01-25 07:22:00,
2013-01-25 02:27:00,7.3,-9.1,30.05,WSW,255,10.5,10.5,46,0.00,,---,0.00,VWS V14.01,2013-01-25 07:27:00,
2013-01-25 02:32:00,7.5,-8.9,30.05,West,263,10.5,10.5,46,0.00,,---,0.00,VWS V14.01,2013-01-25 07:32:00,
2013-01-25 02:37:00,7.5,-8.9,30.05,WSW,252,11.0,11.0,46,0.00,,---,0.00,VWS V14.01,2013-01-25 07:37:00,
2013-01-25 02:42:00,7.5,-8.9,30.05,WSW,258,8.7,8.7,46,0.00,,---,0.00,VWS V14.01,2013-01-25 07:42:00,
2013-01-25 02:47:00,7.5,-8.9,30.05,WSW,258,8.7,12.3,46,0.00,,---,0.00,VWS V14.01,2013-01-25 07:47:00,
2013-01-25 02:52:00,7.5,-8.9,30.05,WSW,243,9.6,10.1,46,0.00,,---,0.00,VWS V14.01,2013-01-25 07:52:00,
2013-01-25 02:57:00,7.7,-8.8,30.05,West,265,12.8,12.8,46,0.00,,---,0.00,VWS V14.01,2013-01-25 07:57:00,
2013-01-25 03:02:00,7.7,-8.8,30.05,WSW,257,8.7,11.0,46,0.00,,---,0.00,VWS V14.01,2013-01-25 08:02:00,
2013-01-25 03:07:00,7.7,-8.8,30.05,West,266,8.3,8.3,46,0.00,,---,0.00,VWS V14.01,2013-01-25 08:07:00,
2013-01-25 03:12:00,7.9,-8.6,30.05,WSW,257,7.6,7.6,46,0.00,,---,0.00,VWS V14.01,2013-01-25 08:12:00,
2013-01-25 03:17:00,7.9,-8.6,30.05,West,264,8.7,8.7,46,0.00,,---,0.00,VWS V14.01,2013-01-25 08:17:00,
2013-01-25 03:22:00,7.9,-8.6,30.05,West,262,10.5,10.5,46,0.00,,---,0.00,VWS V14.01,2013-01-25 08:22:00,
2013-01-25 03:27:00,7.9,-8.6,30.05,WSW,251,10.1,10.5,46,0.00,,---,0.00,VWS V14.01,2013-01-25 08:27:00,
2013-01-25 03:32:00,7.9,-8.6,30.05,WSW,254,8.3,8.3,46,0.00,,---,0.00,VWS V14.01,2013-01-25 08:32:00,
2013-01-25 03:37:00,7.9,-8.6,30.05,WSW,257,6.3,7.6,46,0.00,,---,0.00,VWS V14.01,2013-01-25 08:37:00,
2013-01-25 03:42:00,7.9,-8.6,30.05,WNW,289,7.6,7.6,46,0.00,,---,0.00,VWS V14.01,2013-01-25 08:42:00,
2013-01-25 03:47:00,7.9,-8.6,30.05,WNW,291,7.6,7.6,46,0.00,,---,0.00,VWS V14.01,2013-01-25 08:47:00,
2013-01-25 03:52:00,7.7,-8.8,30.05,WNW,288,6.3,8.7,46,0.00,,---,0.00,VWS V14.01,2013-01-25 08:52:00,
2013-01-25 03:57:00,7.7,-8.8,30.05,West,276,3.6,6.3,46,0.00,,---,0.00,VWS V14.01,2013-01-25 08:57:00,
2013-01-25 04:02:00,7.7,-8.8,30.05,WNW,291,7.6,7.6,46,0.00,,---,0.00,VWS V14.01,2013-01-25 09:02:00,
2013-01-25 04:07:00,7.7,-8.8,30.05,West,262,6.3,7.6,46,0.00,,---,0.00,VWS V14.01,2013-01-25 09:07:00,
2013-01-25 04:12:00,7.7,-8.8,30.05,West,268,6.3,6.3,46,0.00,,---,0.00,VWS V14.01,2013-01-25 09:12:00,
2013-01-25 04:17:00,7.5,-8.9,30.05,West,267,4.9,5.4,46,0.00,,---,0.00,VWS V14.01,2013-01-25 09:17:00,
2013-01-25 04:22:00,7.5,-8.9,30.05,West,266,5.4,5.4,46,0.00,,---,0.00,VWS V14.01,2013-01-25 09:22:00,
2013-01-25 04:27:00,7.5,-8.9,30.05,West,268,7.6,8.3,46,0.00,,---,0.00,VWS V14.01,2013-01-25 09:27:00,
2013-01-25 04:32:00,7.3,-9.1,30.05,West,269,5.8,5.8,46,0.00,,---,0.00,VWS V14.01,2013-01-25 09:32:00,
2013-01-25 04:37:00,7.3,-9.1,30.05,WSW,257,7.2,7.2,46,0.00,,---,0.00,VWS V14.01,2013-01-25 09:37:00,
2013-01-25 04:42:00,7.5,-8.9,30.05,WSW,257,6.3,6.3,46,0.00,,---,0.00,VWS V14.01,2013-01-25 09:42:00,
2013-01-25 04:47:00,7.5,-8.9,30.05,WSW,258,6.3,7.6,46,0.00,,---,0.00,VWS V14.01,2013-01-25 09:47:00,
2013-01-25 04:52:00,7.7,-8.8,30.05,WSW,257,7.6,7.6,46,0.00,,---,0.00,VWS V14.01,2013-01-25 09:52:00,
2013-01-25 04:57:00,7.7,-8.8,30.05,West,263,6.3,6.3,46,0.00,,---,0.00,VWS V14.01,2013-01-25 09:57:00,
2013-01-25 05:02:00,7.7,-8.8,30.05,WSW,247,8.7,8.7,46,0.00,,---,0.00,VWS V14.01,2013-01-25 10:02:00,
2013-01-25 05:07:00,7.7,-8.8,30.05,WSW,253,6.7,8.1,46,0.00,,---,0.00,VWS V14.01,2013-01-25 10:07:00,
2013-01-25 05:12:00,7.7,-8.8,30.05,West,262,4.9,5.4,46,0.00,,---,0.00,VWS V14.01,2013-01-25 10:12:00,
2013-01-25 05:17:00,7.7,-8.8,30.05,West,262,5.8,6.3,46,0.00,,---,0.00,VWS V14.01,2013-01-25 10:17:00,
2013-01-25 05:22:00,7.7,-8.8,30.05,West,261,5.4,5.4,46,0.00,,---,0.00,VWS V14.01,2013-01-25 10:22:00,
2013-01-25 05:27:00,7.7,-8.8,30.05,WSW,253,6.3,6.3,46,0.00,,---,0.00,VWS V14.01,2013-01-25 10:27:00,
2013-01-25 05:32:00,7.7,-8.8,30.05,WSW,249,8.1,8.1,46,0.00,,---,0.00,VWS V14.01,2013-01-25 10:32:00,
2013-01-25 05:37:00,7.7,-8.8,30.05,WSW,249,5.4,5.4,46,0.00,,---,0.00,VWS V14.01,2013-01-25 10:37:00,
2013-01-25 05:42:00,7.7,-8.8,30.05,WSW,240,5.4,5.4,46,0.00,,---,0.00,VWS V14.01,2013-01-25 10:42:00,
2013-01-25 05:47:00,7.7,-8.8,30.05,WSW,240,5.8,5.8,46,0.00,,---,0.00,VWS V14.01,2013-01-25 10:47:00,
2013-01-25 05:52:00,7.7,-8.8,30.05,WSW,249,4.9,4.9,46,0.00,,---,0.00,VWS V14.01,2013-01-25 10:52:00,
2013-01-25 05:57:00,7.7,-8.8,30.05,WSW,252,5.4,5.8,46,0.00,,---,0.00,VWS V14.01,2013-01-25 10:57:00,
2013-01-25 06:02:00,7.7,-8.8,30.05,WSW,255,6.3,6.3,46,0.00,,---,0.00,VWS V14.01,2013-01-25 11:02:00,
2013-01-25 06:07:00,7.7,-8.8,30.05,WSW,246,5.4,5.4,46,0.00,,---,0.00,VWS V14.01,2013-01-25 11:07:00,
2013-01-25 06:12:00,7.7,-8.8,30.05,WSW,245,6.3,6.3,46,0.00,,---,0.00,VWS V14.01,2013-01-25 11:12:00,
2013-01-25 06:17:00,7.7,-8.8,30.05,WSW,248,7.6,7.6,46,0.00,,---,0.00,VWS V14.01,2013-01-25 11:17:00,
2013-01-25 06:22:00,7.7,-8.8,30.05,WSW,246,8.1,8.1,46,0.00,,---,0.00,VWS V14.01,2013-01-25 11:22:00,
2013-01-25 06:27:00,7.7,-8.8,30.05,WSW,249,8.1,8.3,46,0.00,,---,0.00,VWS V14.01,2013-01-25 11:27:00,
2013-01-25 06:32:00,7.9,-8.6,30.05,WSW,254,7.6,7.6,46,0.00,,---,0.00,VWS V14.01,2013-01-25 11:32:00,
2013-01-25 06:37:00,7.9,-8.6,30.05,WSW,248,7.6,7.6,46,0.00,,---,0.00,VWS V14.01,2013-01-25 11:37:00,
2013-01-25 06:42:00,7.9,-8.6,30.05,WSW,249,6.3,6.3,46,0.00,,---,0.00,VWS V14.01,2013-01-25 11:42:00,
2013-01-25 06:47:00,7.9,-8.6,30.05,WSW,249,6.3,6.3,46,0.00,,---,0.00,VWS V14.01,2013-01-25 11:47:00,
2013-01-25 06:52:00,8.1,-8.4,30.05,WSW,245,7.6,7.6,46,0.00,,---,0.00,VWS V14.01,2013-01-25 11:52:00,
2013-01-25 06:57:00,8.1,-8.4,30.05,WSW,241,5.4,6.3,46,0.00,,---,0.00,VWS V14.01,2013-01-25 11:57:00,
2013-01-25 07:02:00,8.1,-8.4,30.05,WSW,249,5.8,5.8,46,0.00,,---,0.00,VWS V14.01,2013-01-25 12:02:00,
2013-01-25 07:07:00,8.1,-8.4,30.05,WSW,248,6.3,6.3,46,0.00,,---,0.00,VWS V14.01,2013-01-25 12:07:00,
2013-01-25 07:12:00,8.1,-8.4,30.05,WSW,241,5.8,5.8,46,0.00,,---,0.00,VWS V14.01,2013-01-25 12:12:00,
2013-01-25 07:17:00,8.1,-8.4,30.05,WSW,241,8.1,8.1,46,0.00,,---,0.00,VWS V14.01,2013-01-25 12:17:00,
2013-01-25 07:22:00,8.2,-8.3,30.05,WSW,245,8.3,8.3,46,0.00,,---,0.00,VWS V14.01,2013-01-25 12:22:00,
2013-01-25 07:27:00,8.2,-8.3,30.05,WSW,243,6.3,6.3,46,0.00,,---,0.00,VWS V14.01,2013-01-25 12:27:00,
2013-01-25 07:32:00,8.2,-8.3,30.05,WSW,245,5.8,8.3,46,0.00,,---,0.00,VWS V14.01,2013-01-25 12:32:00,
2013-01-25 07:37:00,8.2,-8.3,30.05,WSW,244,8.1,8.1,46,0.00,,---,0.00,VWS V14.01,2013-01-25 12:37:00,
2013-01-25 07:42:00,8.2,-8.3,30.05,SW,228,5.8,7.6,46,0.00,,---,0.00,VWS V14.01,2013-01-25 12:42:00,
2013-01-25 07:47:00,8.4,-8.1,30.05,WSW,237,7.6,7.6,46,0.00,,---,0.00,VWS V14.01,2013-01-25 12:47:00,
2013-01-25 07:52:00,8.4,-8.1,30.05,WSW,244,6.7,8.1,46,0.00,,---,0.00,VWS V14.01,2013-01-25 12:52:00,
2013-01-25 07:57:00,8.6,-7.9,30.05,WSW,252,8.1,8.3,46,0.00,,---,0.00,VWS V14.01,2013-01-25 12:57:00,
2013-01-25 08:02:00,8.6,-7.9,30.05,WSW,239,6.3,6.3,46,0.00,,---,0.00,VWS V14.01,2013-01-25 13:02:00,
2013-01-25 08:07:00,8.8,-7.8,30.05,WSW,244,7.6,8.1,46,0.00,,---,0.00,VWS V14.01,2013-01-25 13:07:00,
2013-01-25 08:12:00,9.1,-7.4,30.05,WSW,239,5.8,6.3,46,0.00,,---,0.00,VWS V14.01,2013-01-25 13:12:00,
2013-01-25 08:17:00,9.3,-7.3,30.05,WSW,247,5.8,8.3,46,0.00,,---,0.00,VWS V14.01,2013-01-25 13:17:00,
2013-01-25 08:22:00,9.5,-7.1,30.05,WSW,239,5.8,6.7,46,0.00,,---,0.00,VWS V14.01,2013-01-25 13:22:00,
2013-01-25 08:27:00,9.7,-6.9,30.05,WSW,243,5.8,5.8,46,0.00,,---,0.00,VWS V14.01,2013-01-25 13:27:00,
2013-01-25 08:32:00,9.7,-6.9,30.05,WSW,243,6.3,7.6,46,0.00,,---,0.00,VWS V14.01,2013-01-25 13:32:00,
2013-01-25 08:37:00,10.0,-6.6,30.05,WSW,240,7.6,8.3,46,0.00,,---,0.00,VWS V14.01,2013-01-25 13:37:00,
2013-01-25 08:42:00,10.0,-6.6,30.05,WSW,244,5.8,8.1,46,0.00,,---,0.00,VWS V14.01,2013-01-25 13:42:00,
2013-01-25 08:47:00,10.2,-6.4,30.05,WSW,253,6.3,6.7,46,0.00,,---,0.00,VWS V14.01,2013-01-25 13:47:00,
2013-01-25 08:52:00,10.2,-6.4,30.05,SW,233,6.3,8.3,46,0.00,,---,0.00,VWS V14.01,2013-01-25 13:52:00,
2013-01-25 08:57:00,10.8,-5.9,30.05,WSW,238,6.3,7.6,46,0.00,,---,0.00,VWS V14.01,2013-01-25 13:57:00,
2013-01-25 09:02:00,10.9,-5.8,30.05,WSW,239,6.3,7.6,46,0.00,,---,0.00,VWS V14.01,2013-01-25 14:02:00,
2013-01-25 09:07:00,11.1,-5.6,30.05,WSW,240,8.1,8.1,46,0.00,,---,0.00,VWS V14.01,2013-01-25 14:07:00,
2013-01-25 09:12:00,11.3,-5.4,30.05,WSW,244,6.3,7.6,46,0.00,,---,0.00,VWS V14.01,2013-01-25 14:12:00,
2013-01-25 09:17:00,11.5,-5.3,30.05,SW,230,4.0,6.7,46,0.00,,---,0.00,VWS V14.01,2013-01-25 14:17:00,
2013-01-25 09:22:00,11.7,-5.1,30.05,SW,233,5.8,6.3,46,0.00,,---,0.00,VWS V14.01,2013-01-25 14:22:00,
2013-01-25 09:27:00,11.7,-5.1,30.05,SW,217,4.9,5.8,46,0.00,,---,0.00,VWS V14.01,2013-01-25 14:27:00,
2013-01-25 09:32:00,12.6,-4.3,30.05,SW,224,5.8,5.8,46,0.00,,---,0.00,VWS V14.01,2013-01-25 14:32:00,
2013-01-25 09:37:00,12.7,-4.1,30.05,SW,219,4.0,4.9,46,0.00,,---,0.00,VWS V14.01,2013-01-25 14:37:00,
2013-01-25 09:42:00,13.3,-3.6,30.05,SW,228,5.8,5.8,46,0.00,,---,0.00,VWS V14.01,2013-01-25 14:42:00,
2013-01-25 09:47:00,13.3,-3.6,30.05,SW,222,4.9,5.4,46,0.00,,---,0.00,VWS V14.01,2013-01-25 14:47:00,
2013-01-25 09:52:00,13.8,-3.1,30.05,SW,229,4.0,5.4,46,0.00,,---,0.00,VWS V14.01,2013-01-25 14:52:00,
2013-01-25 09:57:00,14.2,2.9,30.05,SW,223,3.1,4.5,60,0.00,,---,0.00,VWS V14.01,2013-01-25 14:57:00,
2013-01-25 10:02:00,14.9,3.5,30.05,South,189,3.6,5.8,60,0.00,,---,0.00,VWS V14.01,2013-01-25 15:02:00,
2013-01-25 10:07:00,15.3,3.5,30.05,South,189,5.4,5.4,59,0.00,,---,0.00,VWS V14.01,2013-01-25 15:07:00,
2013-01-25 10:12:00,15.4,3.7,30.05,SSW,192,5.4,8.1,59,0.00,,---,0.00,VWS V14.01,2013-01-25 15:12:00,
2013-01-25 10:17:00,15.6,3.8,30.05,SSE,161,3.1,3.1,59,0.00,,---,0.00,VWS V14.01,2013-01-25 15:17:00,
2013-01-25 10:22:00,15.8,3.7,30.05,South,178,4.0,5.8,58,0.00,,---,0.00,VWS V14.01,2013-01-25 15:22:00,
2013-01-25 10:27:00,16.0,3.5,30.05,South,170,4.0,5.4,57,0.00,,---,0.00,VWS V14.01,2013-01-25 15:27:00,
2013-01-25 10:32:00,16.2,3.6,30.05,SSW,197,3.6,4.9,57,0.00,,---,0.00,VWS V14.01,2013-01-25 15:32:00,
2013-01-25 10:37:00,16.7,4.1,30.05,South,185,3.6,5.4,57,0.00,,---,0.00,VWS V14.01,2013-01-25 15:37:00,
2013-01-25 10:42:00,17.1,4.5,30.05,SSW,199,5.8,5.8,57,0.00,,---,0.00,VWS V14.01,2013-01-25 15:42:00,
2013-01-25 10:47:00,17.2,4.2,30.05,SSE,164,4.0,4.0,56,0.00,,---,0.00,VWS V14.01,2013-01-25 15:47:00,
2013-01-25 10:52:00,17.1,4.1,30.05,South,171,5.4,6.3,56,0.00,,---,0.00,VWS V14.01,2013-01-25 15:52:00,
2013-01-25 10:57:00,16.9,3.5,30.05,SSE,156,4.0,5.4,55,0.00,,---,0.00,VWS V14.01,2013-01-25 15:57:00,
2013-01-25 11:02:00,17.6,4.6,30.05,SSE,162,4.0,5.8,56,0.00,,---,0.00,VWS V14.01,2013-01-25 16:02:00,
2013-01-25 11:07:00,17.4,4.0,30.05,SSE,151,6.3,7.2,55,0.00,,---,0.00,VWS V14.01,2013-01-25 16:07:00,
2013-01-25 11:12:00,17.6,4.2,30.05,South,171,5.4,5.4,55,0.00,,---,0.00,VWS V14.01,2013-01-25 16:12:00,
2013-01-25 11:17:00,17.4,4.0,30.05,ESE,119,5.8,5.8,55,0.00,,---,0.00,VWS V14.01,2013-01-25 16:17:00,
2013-01-25 11:22:00,17.2,3.9,30.05,SE,140,7.2,8.7,55,0.00,,---,0.00,VWS V14.01,2013-01-25 16:22:00,
2013-01-25 11:27:00,17.1,3.3,30.05,SSE,152,5.4,6.3,54,0.00,,---,0.00,VWS V14.01,2013-01-25 16:27:00,
2013-01-25 11:32:00,17.1,3.3,30.05,SE,145,8.7,8.7,54,0.00,,---,0.00,VWS V14.01,2013-01-25 16:32:00,
2013-01-25 11:37:00,17.1,3.3,30.05,SSE,151,8.7,8.7,54,0.00,,---,0.00,VWS V14.01,2013-01-25 16:37:00,
2013-01-25 11:42:00,17.1,3.3,30.05,South,181,7.6,7.6,54,0.00,,---,0.00,VWS V14.01,2013-01-25 16:42:00,
2013-01-25 11:47:00,17.4,3.6,30.05,SSE,166,5.4,7.6,54,0.00,,---,0.00,VWS V14.01,2013-01-25 16:47:00,
2013-01-25 11:52:00,17.6,3.8,30.05,South,190,5.8,6.3,54,0.00,,---,0.00,VWS V14.01,2013-01-25 16:52:00,
2013-01-25 11:57:00,17.8,3.6,30.05,SSE,159,7.6,8.3,53,0.00,,---,0.00,VWS V14.01,2013-01-25 16:57:00,
2013-01-25 12:02:00,17.1,2.9,30.05,SE,134,8.1,8.3,53,0.00,,---,0.00,VWS V14.01,2013-01-25 17:02:00,
2013-01-25 12:07:00,17.2,3.1,30.05,SSE,151,7.6,7.6,53,0.00,,---,0.00,VWS V14.01,2013-01-25 17:07:00,
2013-01-25 12:12:00,18.3,4.1,30.05,SSW,211,8.1,8.1,53,0.00,,---,0.00,VWS V14.01,2013-01-25 17:12:00,
2013-01-25 12:17:00,18.3,4.1,30.05,SSW,209,5.4,6.3,53,0.00,,---,0.00,VWS V14.01,2013-01-25 17:17:00,
2013-01-25 12:22:00,18.3,4.1,30.05,SSW,209,5.4,5.8,53,0.00,,---,0.00,VWS V14.01,2013-01-25 17:22:00,
2013-01-25 12:27:00,18.7,4.4,30.05,SSW,197,7.6,8.1,53,0.00,,---,0.00,VWS V14.01,2013-01-25 17:27:00,
2013-01-25 12:32:00,18.9,4.6,30.05,SSE,166,4.9,6.3,53,0.00,,---,0.00,VWS V14.01,2013-01-25 17:32:00,
2013-01-25 12:37:00,18.7,4.4,30.05,SSE,158,5.8,8.1,53,0.00,,---,0.00,VWS V14.01,2013-01-25 17:37:00,
2013-01-25 12:42:00,19.0,4.7,30.05,SSW,207,5.8,5.8,53,0.00,,---,0.00,VWS V14.01,2013-01-25 17:42:00,
2013-01-25 12:47:00,19.0,4.3,30.05,SSW,206,5.8,6.3,52,0.00,,---,0.00,VWS V14.01,2013-01-25 17:47:00,
2013-01-25 12:52:00,19.0,4.3,30.05,SSW,206,6.3,6.3,52,0.00,,---,0.00,VWS V14.01,2013-01-25 17:52:00,
2013-01-25 12:57:00,19.0,4.3,30.05,SW,222,5.4,7.6,52,0.00,,---,0.00,VWS V14.01,2013-01-25 17:57:00,
2013-01-25 13:02:00,19.0,4.3,30.05,SW,229,6.3,6.3,52,0.00,,---,0.00,VWS V14.01,2013-01-25 18:02:00,
2013-01-25 13:07:00,19.2,4.5,30.05,SSW,193,4.9,5.4,52,0.00,,---,0.00,VWS V14.01,2013-01-25 18:07:00,
2013-01-25 13:12:00,19.4,4.7,30.05,SE,137,5.4,7.6,52,0.00,,---,0.00,VWS V14.01,2013-01-25 18:12:00,
2013-01-25 13:17:00,19.2,4.1,30.05,SSW,195,5.4,6.3,51,0.00,,---,0.00,VWS V14.01,2013-01-25 18:17:00,
2013-01-25 13:22:00,18.5,3.4,30.05,SSE,155,5.8,7.6,51,0.00,,---,0.00,VWS V14.01,2013-01-25 18:22:00,
2013-01-25 13:27:00,18.1,3.1,30.05,SE,126,8.3,8.3,51,0.00,,---,0.00,VWS V14.01,2013-01-25 18:27:00,
2013-01-25 13:32:00,18.1,3.1,30.05,SSW,200,6.3,6.3,51,0.00,,---,0.00,VWS V14.01,2013-01-25 18:32:00,
2013-01-25 13:37:00,18.3,3.2,30.05,SE,139,4.0,5.8,51,0.00,,---,0.00,VWS V14.01,2013-01-25 18:37:00,
2013-01-25 13:42:00,18.7,3.6,30.05,SSE,165,3.6,6.3,51,0.00,,---,0.00,VWS V14.01,2013-01-25 18:42:00,
2013-01-25 13:47:00,18.7,3.6,30.05,SSE,163,5.8,7.6,51,0.00,,---,0.00,VWS V14.01,2013-01-25 18:47:00,
2013-01-25 13:52:00,18.7,3.6,30.05,SSE,157,4.0,4.9,51,0.00,,---,0.00,VWS V14.01,2013-01-25 18:52:00,
2013-01-25 13:57:00,19.0,3.9,30.05,SSW,205,4.0,6.3,51,0.00,,---,0.00,VWS V14.01,2013-01-25 18:57:00,
2013-01-25 14:02:00,18.7,3.1,30.05,SSE,167,4.0,5.8,50,0.00,,---,0.00,VWS V14.01,2013-01-25 19:02:00,
2013-01-25 14:07:00,19.2,4.1,30.05,South,171,2.7,4.0,51,0.00,,---,0.00,VWS V14.01,2013-01-25 19:07:00,
2013-01-25 14:12:00,19.2,3.6,30.05,SSE,150,4.0,4.9,50,0.00,,---,0.00,VWS V14.01,2013-01-25 19:12:00,
2013-01-25 14:17:00,19.0,3.5,30.05,SSE,156,4.0,5.8,50,0.00,,---,0.00,VWS V14.01,2013-01-25 19:17:00,
2013-01-25 14:22:00,18.7,3.1,30.05,SSE,158,2.7,4.0,50,0.00,,---,0.00,VWS V14.01,2013-01-25 19:22:00,
2013-01-25 14:27:00,18.9,3.3,30.05,SE,140,3.1,4.9,50,0.00,,---,0.00,VWS V14.01,2013-01-25 19:27:00,
2013-01-25 14:32:00,19.0,3.0,30.05,SSE,164,5.4,6.3,49,0.00,,---,0.00,VWS V14.01,2013-01-25 19:32:00,
2013-01-25 14:37:00,18.1,2.2,30.05,SSE,148,5.4,8.1,49,0.00,,---,0.00,VWS V14.01,2013-01-25 19:37:00,
2013-01-25 14:42:00,18.1,2.2,30.05,SSE,151,4.0,4.0,49,0.00,,---,0.00,VWS V14.01,2013-01-25 19:42:00,
2013-01-25 14:47:00,18.5,2.5,30.05,SSE,162,3.1,3.1,49,0.00,,---,0.00,VWS V14.01,2013-01-25 19:47:00,
2013-01-25 14:52:00,18.5,2.5,30.05,SSE,148,4.0,4.9,49,0.00,,---,0.00,VWS V14.01,2013-01-25 19:52:00,
2013-01-25 14:57:00,18.5,2.5,30.05,SSE,168,4.9,4.9,49,0.00,,---,0.00,VWS V14.01,2013-01-25 19:57:00,
2013-01-25 15:02:00,18.0,2.0,30.05,SSE,165,5.8,5.8,49,0.00,,---,0.00,VWS V14.01,2013-01-25 20:02:00,
2013-01-25 15:07:00,18.1,2.2,30.05,SSE,155,3.6,4.0,49,0.00,,---,0.00,VWS V14.01,2013-01-25 20:07:00,
2013-01-25 15:12:00,17.8,1.9,30.05,SSE,149,5.8,5.8,49,0.00,,---,0.00,VWS V14.01,2013-01-25 20:12:00,
2013-01-25 15:17:00,17.4,2.0,30.05,SE,144,5.8,5.8,50,0.00,,---,0.00,VWS V14.01,2013-01-25 20:17:00,
2013-01-25 15:21:00,17.4,2.0,30.05,SSE,157,5.4,5.8,50,0.00,,---,0.00,VWS V14.01,2013-01-25 20:21:00,
2013-01-25 15:26:00,17.2,2.2,30.05,SE,137,4.0,6.3,51,0.00,,---,0.00,VWS V14.01,2013-01-25 20:26:00,
2013-01-25 15:31:00,17.2,2.2,30.05,SSE,153,6.3,6.3,51,0.00,,---,0.00,VWS V14.01,2013-01-25 20:31:00,
2013-01-25 15:36:00,16.9,2.3,30.05,SE,134,5.8,6.3,52,0.00,,---,0.00,VWS V14.01,2013-01-25 20:36:00,
2013-01-25 15:41:00,16.7,2.5,30.05,SE,143,4.0,6.3,53,0.00,,---,0.00,VWS V14.01,2013-01-25 20:41:00,
2013-01-25 15:46:00,16.3,2.2,30.05,SSE,149,7.6,7.6,53,0.00,,---,0.00,VWS V14.01,2013-01-25 20:46:00,
2013-01-25 15:51:00,16.2,2.0,30.05,SSE,149,4.9,5.8,53,0.00,,---,0.00,VWS V14.01,2013-01-25 20:51:00,
2013-01-25 15:56:00,16.5,2.8,30.05,SSE,157,5.4,6.3,54,0.00,,---,0.00,VWS V14.01,2013-01-25 20:56:00,
2013-01-25 16:01:00,16.2,2.5,30.05,SE,144,5.8,7.6,54,0.00,,---,0.00,VWS V14.01,2013-01-25 21:01:00,
2013-01-25 16:06:00,16.0,2.3,30.05,SSE,158,5.8,7.6,54,0.00,,---,0.00,VWS V14.01,2013-01-25 21:06:00,
2013-01-25 16:11:00,16.0,2.7,30.05,SSE,154,2.7,5.4,55,0.00,,---,0.00,VWS V14.01,2013-01-25 21:11:00,
2013-01-25 16:16:00,15.8,2.5,30.05,SE,129,5.8,5.8,55,0.00,,---,0.00,VWS V14.01,2013-01-25 21:16:00,
2013-01-25 16:21:00,15.8,2.5,30.05,SE,137,2.7,4.9,55,0.00,,---,0.00,VWS V14.01,2013-01-25 21:21:00,
2013-01-25 16:26:00,16.5,3.6,30.05,SE,140,5.8,6.3,56,0.00,,---,0.00,VWS V14.01,2013-01-25 21:26:00,
2013-01-25 16:31:00,16.2,3.2,30.05,SSE,148,7.6,7.6,56,0.00,,---,0.00,VWS V14.01,2013-01-25 21:31:00,
2013-01-25 16:36:00,15.8,2.9,30.05,SSE,156,6.7,6.7,56,0.00,,---,0.00,VWS V14.01,2013-01-25 21:36:00,
2013-01-25 16:41:00,15.8,3.3,30.05,SE,146,5.4,6.3,57,0.00,,---,0.00,VWS V14.01,2013-01-25 21:41:00,
2013-01-25 16:46:00,15.4,2.9,30.05,SE,130,4.9,5.8,57,0.00,,---,0.00,VWS V14.01,2013-01-25 21:46:00,
2013-01-25 16:51:00,15.4,3.3,30.05,ESE,116,5.4,5.4,58,0.00,,---,0.00,VWS V14.01,2013-01-25 21:51:00,
2013-01-25 16:56:00,15.3,3.2,30.05,SE,131,5.8,5.8,58,0.00,,---,0.00,VWS V14.01,2013-01-25 21:56:00,
2013-01-25 17:01:00,15.4,3.3,30.05,ESE,122,3.1,5.4,58,0.00,,---,0.00,VWS V14.01,2013-01-25 22:01:00,
2013-01-25 17:06:00,15.4,3.7,30.05,SE,128,3.6,4.0,59,0.00,,---,0.00,VWS V14.01,2013-01-25 22:06:00,
2013-01-25 17:11:00,15.4,3.7,30.05,SSE,155,5.4,6.3,59,0.00,,---,0.00,VWS V14.01,2013-01-25 22:11:00,
2013-01-25 17:16:00,15.3,3.5,30.05,SE,133,3.6,4.0,59,0.00,,---,0.00,VWS V14.01,2013-01-25 22:16:00,
2013-01-25 17:21:00,15.1,3.3,30.05,SE,145,4.9,5.8,59,0.00,,---,0.00,VWS V14.01,2013-01-25 22:21:00,
2013-01-25 17:26:00,15.1,3.7,30.05,SE,139,4.9,5.4,60,0.00,,---,0.00,VWS V14.01,2013-01-25 22:26:00,
2013-01-25 17:31:00,15.3,3.9,30.05,SE,143,5.4,5.4,60,0.00,,---,0.00,VWS V14.01,2013-01-25 22:31:00,
2013-01-25 17:36:00,15.4,4.1,30.05,SSE,147,5.4,5.8,60,0.00,,---,0.00,VWS V14.01,2013-01-25 22:36:00,
2013-01-25 17:41:00,15.4,4.4,30.05,SSE,168,4.0,4.9,61,0.00,,---,0.00,VWS V14.01,2013-01-25 22:41:00,
2013-01-25 17:46:00,15.4,4.4,30.05,SSE,168,5.8,5.8,61,0.00,,---,0.00,VWS V14.01,2013-01-25 22:46:00,
2013-01-25 17:51:00,15.1,4.1,30.05,SSE,154,3.6,3.6,61,0.00,,---,0.00,VWS V14.01,2013-01-25 22:51:00,
2013-01-25 17:56:00,15.4,4.4,30.05,SE,146,4.9,5.4,61,0.00,,---,0.00,VWS V14.01,2013-01-25 22:56:00,
2013-01-25 18:01:00,15.3,4.2,30.05,SSE,155,4.5,4.5,61,0.00,,---,0.00,VWS V14.01,2013-01-25 23:01:00,
2013-01-25 18:06:00,15.6,4.9,30.05,SE,143,3.6,4.0,62,0.00,,---,0.00,VWS V14.01,2013-01-25 23:06:00,
2013-01-25 18:11:00,15.6,4.9,30.05,SE,141,4.9,4.9,62,0.00,,---,0.00,VWS V14.01,2013-01-25 23:11:00,
2013-01-25 18:16:00,15.3,4.6,30.05,SSE,151,4.0,4.0,62,0.00,,---,0.00,VWS V14.01,2013-01-25 23:16:00,
2013-01-25 18:21:00,15.4,4.8,30.05,SE,136,4.0,4.0,62,0.00,,---,0.00,VWS V14.01,2013-01-25 23:21:00,
2013-01-25 18:26:00,15.4,4.8,30.05,SE,126,4.0,4.0,62,0.00,,---,0.00,VWS V14.01,2013-01-25 23:26:00,
2013-01-25 18:31:00,15.4,4.8,30.05,SE,144,2.7,2.7,62,0.00,,---,0.00,VWS V14.01,2013-01-25 23:31:00,
2013-01-25 18:36:00,15.6,5.3,30.05,SE,134,3.6,4.0,63,0.00,,---,0.00,VWS V14.01,2013-01-25 23:36:00,
2013-01-25 18:41:00,15.4,5.1,30.05,SE,140,4.9,5.8,63,0.00,,---,0.00,VWS V14.01,2013-01-25 23:41:00,
2013-01-25 18:46:00,15.3,4.9,30.05,SSE,147,3.1,4.9,63,0.00,,---,0.00,VWS V14.01,2013-01-25 23:46:00,
2013-01-25 18:51:00,15.3,4.9,30.05,SE,131,4.0,4.0,63,0.00,,---,0.00,VWS V14.01,2013-01-25 23:51:00,
2013-01-25 18:56:00,15.3,4.9,30.05,SSE,153,4.0,5.4,63,0.00,,---,0.00,VWS V14.01,2013-01-25 23:56:00,
2013-01-25 19:01:00,15.4,5.1,30.05,SSE,158,2.7,3.6,63,0.00,,---,0.00,VWS V14.01,2013-01-26 00:01:00,
2013-01-25 19:06:00,15.6,5.3,30.05,SSE,153,4.0,4.0,63,0.00,,---,0.00,VWS V14.01,2013-01-26 00:06:00,
2013-01-25 19:11:00,15.3,4.9,30.05,SE,128,2.7,3.6,63,0.00,,---,0.00,VWS V14.01,2013-01-26 00:11:00,
2013-01-25 19:16:00,15.4,5.1,30.05,SE,136,2.7,2.7,63,0.00,,---,0.00,VWS V14.01,2013-01-26 00:16:00,
2013-01-25 19:21:00,15.4,5.1,30.05,SSE,155,2.7,3.1,63,0.00,,---,0.00,VWS V14.01,2013-01-26 00:21:00,
2013-01-25 19:26:00,15.6,5.3,30.05,SSE,150,4.0,4.5,63,0.00,,---,0.00,VWS V14.01,2013-01-26 00:26:00,
2013-01-25 19:31:00,15.6,5.3,30.05,SSE,150,4.0,4.0,63,0.00,,---,0.00,VWS V14.01,2013-01-26 00:31:00,
2013-01-25 19:36:00,15.6,5.3,30.05,SSE,150,3.1,4.0,63,0.00,,---,0.00,VWS V14.01,2013-01-26 00:36:00,
2013-01-25 19:41:00,15.8,5.4,30.05,SSE,148,4.0,4.0,63,0.00,,---,0.00,VWS V14.01,2013-01-26 00:41:00,
2013-01-25 19:46:00,15.6,5.3,30.05,SSE,147,2.7,4.0,63,0.00,,---,0.00,VWS V14.01,2013-01-26 00:46:00,
2013-01-25 19:51:00,15.8,5.4,30.05,SE,142,2.7,3.6,63,0.00,,---,0.00,VWS V14.01,2013-01-26 00:51:00,
2013-01-25 19:56:00,15.6,5.3,30.05,SE,140,2.7,3.1,63,0.00,,---,0.00,VWS V14.01,2013-01-26 00:56:00,
2013-01-25 20:01:00,15.8,5.4,30.05,SE,138,3.1,3.1,63,0.00,,---,0.00,VWS V14.01,2013-01-26 01:01:00,
2013-01-25 20:06:00,15.8,5.4,30.05,SE,139,2.2,2.7,63,0.00,,---,0.00,VWS V14.01,2013-01-26 01:06:00,
2013-01-25 20:11:00,15.8,5.4,30.05,SE,141,2.7,2.7,63,0.00,,---,0.00,VWS V14.01,2013-01-26 01:11:00,
2013-01-25 20:16:00,15.8,5.4,30.05,SE,141,2.7,2.7,63,0.00,,---,0.00,VWS V14.01,2013-01-26 01:16:00,
2013-01-25 20:21:00,16.0,5.6,30.05,SE,141,0.0,2.2,63,0.00,,---,0.00,VWS V14.01,2013-01-26 01:21:00,
2013-01-25 20:26:00,16.2,5.8,30.05,SSE,148,2.2,3.1,63,0.00,,---,0.00,VWS V14.01,2013-01-26 01:26:00,
2013-01-25 20:31:00,16.2,5.8,30.05,SSE,163,0.0,0.0,63,0.00,,---,0.00,VWS V14.01,2013-01-26 01:31:00,
2013-01-25 20:36:00,16.2,5.8,30.05,SSE,159,2.7,2.7,63,0.00,,---,0.00,VWS V14.01,2013-01-26 01:36:00,
2013-01-25 20:41:00,16.2,5.4,30.05,SSE,159,0.0,0.0,62,0.00,,---,0.00,VWS V14.01,2013-01-26 01:41:00,
2013-01-25 20:46:00,16.0,5.3,30.05,SSE,159,0.0,0.0,62,0.00,,---,0.00,VWS V14.01,2013-01-26 01:46:00,
2013-01-25 20:51:00,16.0,5.3,30.05,SSE,159,0.0,0.0,62,0.00,,---,0.00,VWS V14.01,2013-01-26 01:51:00,
2013-01-25 20:56:00,15.8,5.1,30.05,SSE,159,0.0,0.0,62,0.00,,---,0.00,VWS V14.01,2013-01-26 01:56:00,
2013-01-25 21:01:00,15.8,5.1,30.05,SSE,159,0.0,0.0,62,0.00,,---,0.00,VWS V14.01,2013-01-26 02:01:00,
2013-01-25 21:06:00,15.6,4.9,30.05,SSE,159,0.0,0.0,62,0.00,,---,0.00,VWS V14.01,2013-01-26 02:06:00,
2013-01-25 21:11:00,15.6,4.9,30.05,SSE,159,0.0,0.0,62,0.00,,---,0.00,VWS V14.01,2013-01-26 02:11:00,
2013-01-25 21:16:00,15.4,4.8,30.05,SSE,159,0.0,0.0,62,0.00,,---,0.00,VWS V14.01,2013-01-26 02:16:00,
2013-01-25 21:21:00,15.3,4.6,30.05,SSE,159,0.0,0.0,62,0.00,,---,0.00,VWS V14.01,2013-01-26 02:21:00,
2013-01-25 21:26:00,15.1,4.4,30.05,SSE,159,0.0,0.0,62,0.00,,---,0.00,VWS V14.01,2013-01-26 02:26:00,
2013-01-25 21:31:00,15.1,4.4,30.05,SSE,159,0.0,0.0,62,0.00,,---,0.00,VWS V14.01,2013-01-26 02:31:00,
2013-01-25 21:36:00,15.1,4.4,30.05,SSE,159,0.0,0.0,62,0.00,,---,0.00,VWS V14.01,2013-01-26 02:36:00,
2013-01-25 21:41:00,14.7,4.1,30.05,SSE,159,0.0,0.0,62,0.00,,---,0.00,VWS V14.01,2013-01-26 02:41:00,
2013-01-25 21:46:00,14.4,3.7,30.05,SSE,159,0.0,0.0,62,0.00,,---,0.00,VWS V14.01,2013-01-26 02:46:00,
2013-01-25 21:51:00,14.4,3.7,30.05,SSE,159,0.0,0.0,62,0.00,,---,0.00,VWS V14.01,2013-01-26 02:51:00,
2013-01-25 21:56:00,14.2,3.6,30.05,SSE,159,0.0,0.0,62,0.00,,---,0.00,VWS V14.01,2013-01-26 02:56:00,
2013-01-25 22:01:00,14.2,3.6,30.05,SSE,159,0.0,0.0,62,0.00,,---,0.00,VWS V14.01,2013-01-26 03:01:00,
2013-01-25 22:06:00,14.2,3.6,30.05,SSE,159,0.0,0.0,62,0.00,,---,0.00,VWS V14.01,2013-01-26 03:06:00,
2013-01-25 22:11:00,14.2,3.6,30.05,SSE,159,0.0,0.0,62,0.00,,---,0.00,VWS V14.01,2013-01-26 03:11:00,
2013-01-25 22:16:00,14.2,3.6,30.05,SSE,159,0.0,0.0,62,0.00,,---,0.00,VWS V14.01,2013-01-26 03:16:00,
2013-01-25 22:21:00,14.0,3.7,30.05,SSE,159,0.0,0.0,63,0.00,,---,0.00,VWS V14.01,2013-01-26 03:21:00,
2013-01-25 22:26:00,13.8,3.6,30.05,SSE,159,0.0,0.0,63,0.00,,---,0.00,VWS V14.01,2013-01-26 03:26:00,
2013-01-25 22:31:00,13.8,3.6,30.05,SSE,159,0.0,0.0,63,0.00,,---,0.00,VWS V14.01,2013-01-26 03:31:00,
2013-01-25 22:36:00,13.8,3.6,30.05,SSE,159,0.0,0.0,63,0.00,,---,0.00,VWS V14.01,2013-01-26 03:36:00,
2013-01-25 22:41:00,13.5,3.2,30.05,SSE,159,0.0,0.0,63,0.00,,---,0.00,VWS V14.01,2013-01-26 03:41:00,
2013-01-25 22:46:00,13.5,3.2,30.05,SSE,159,0.0,0.0,63,0.00,,---,0.00,VWS V14.01,2013-01-26 03:46:00,
2013-01-25 22:51:00,13.5,3.2,30.05,SSE,159,0.0,0.0,63,0.00,,---,0.00,VWS V14.01,2013-01-26 03:51:00,
2013-01-25 22:56:00,13.5,3.2,30.05,SSE,159,0.0,0.0,63,0.00,,---,0.00,VWS V14.01,2013-01-26 03:56:00,
2013-01-25 23:01:00,13.5,3.2,30.05,SSE,159,0.0,0.0,63,0.00,,---,0.00,VWS V14.01,2013-01-26 04:01:00,
2013-01-25 23:06:00,13.5,3.2,30.05,SSE,159,0.0,0.0,63,0.00,,---,0.00,VWS V14.01,2013-01-26 04:06:00,
2013-01-25 23:11:00,13.5,3.2,30.05,SSE,159,0.0,0.0,63,0.00,,---,0.00,VWS V14.01,2013-01-26 04:11:00,
2013-01-25 23:16:00,13.5,3.2,30.05,SSE,159,0.0,0.0,63,0.00,,---,0.00,VWS V14.01,2013-01-26 04:16:00,
2013-01-25 23:21:00,13.5,3.2,30.05,SSE,159,0.0,0.0,63,0.00,,---,0.00,VWS V14.01,2013-01-26 04:21:00,
2013-01-25 23:26:00,13.5,3.2,30.05,SSE,159,0.0,0.0,63,0.00,,---,0.00,VWS V14.01,2013-01-26 04:26:00,
2013-01-25 23:31:00,13.5,3.2,30.05,SSE,159,0.0,0.0,63,0.00,,---,0.00,VWS V14.01,2013-01-26 04:31:00,
2013-01-25 23:36:00,11.3,1.2,30.05,SSE,159,0.0,0.0,63,0.00,,---,0.00,VWS V14.01,2013-01-26 04:36:00,
2013-01-25 23:41:00,10.9,0.8,30.05,SSE,159,0.0,0.0,63,0.00,,---,0.00,VWS V14.01,2013-01-26 04:41:00,
2013-01-25 23:46:00,10.9,0.8,30.05,SSE,159,0.0,0.0,63,0.00,,---,0.00,VWS V14.01,2013-01-26 04:46:00,
2013-01-25 23:51:00,10.9,0.8,30.05,SSE,159,0.0,0.0,63,0.00,,---,0.00,VWS V14.01,2013-01-26 04:51:00,
2013-01-25 23:56:00,10.8,0.7,30.05,South,176,0.0,0.0,63,0.00,,---,0.00,VWS V14.01,2013-01-26 04:56:00,